sensor_id;sensor_type;location;lat;lon;timestamp;P1;durP1;ratioP1;P2;durP2;ratioP2
67181;SDS011;54114;53.524;49.396;2023-05-18T00:01:12;15.75;;;9.88;;
67181;SDS011;54114;53.524;49.396;2023-05-18T00:03:39;20.67;;;9.98;;
67181;SDS011;54114;53.524;49.396;2023-05-18T00:06:06;19.77;;;11.35;;
67181;SDS011;54114;53.524;49.396;2023-05-18T00:08:34;19.65;;;10.93;;
67181;SDS011;54114;53.524;49.396;2023-05-18T00:11:02;18.75;;;10.77;;
67181;SDS011;54114;53.524;49.396;2023-05-18T00:13:30;20.50;;;11.23;;
67181;SDS011;54114;53.524;49.396;2023-05-18T00:15:57;19.60;;;10.30;;
67181;SDS011;54114;53.524;49.396;2023-05-18T00:18:24;21.27;;;10.77;;
67181;SDS011;54114;53.524;49.396;2023-05-18T00:20:51;22.45;;;10.18;;
67181;SDS011;54114;53.524;49.396;2023-05-18T00:23:30;18.73;;;10.68;;
67181;SDS011;54114;53.524;49.396;2023-05-18T00:25:58;16.25;;;10.35;;
67181;SDS011;54114;53.524;49.396;2023-05-18T00:28:25;13.52;;;9.80;;
67181;SDS011;54114;53.524;49.396;2023-05-18T00:30:53;19.83;;;11.18;;
67181;SDS011;54114;53.524;49.396;2023-05-18T00:33:21;19.62;;;10.98;;
67181;SDS011;54114;53.524;49.396;2023-05-18T00:35:48;17.48;;;10.82;;
67181;SDS011;54114;53.524;49.396;2023-05-18T00:38:14;20.10;;;10.65;;
67181;SDS011;54114;53.524;49.396;2023-05-18T00:40:41;18.83;;;11.50;;
67181;SDS011;54114;53.524;49.396;2023-05-18T00:43:08;19.73;;;10.85;;
67181;SDS011;54114;53.524;49.396;2023-05-18T00:45:35;19.12;;;11.52;;
67181;SDS011;54114;53.524;49.396;2023-05-18T00:48:02;22.42;;;11.55;;
67181;SDS011;54114;53.524;49.396;2023-05-18T00:50:29;19.17;;;11.63;;
67181;SDS011;54114;53.524;49.396;2023-05-18T00:52:56;23.40;;;12.30;;
67181;SDS011;54114;53.524;49.396;2023-05-18T00:55:23;26.87;;;13.50;;
67181;SDS011;54114;53.524;49.396;2023-05-18T00:57:52;30.95;;;13.77;;
67181;SDS011;54114;53.524;49.396;2023-05-18T01:00:20;24.67;;;12.45;;
67181;SDS011;54114;53.524;49.396;2023-05-18T01:02:48;26.17;;;13.55;;
67181;SDS011;54114;53.524;49.396;2023-05-18T01:05:15;20.60;;;12.25;;
67181;SDS011;54114;53.524;49.396;2023-05-18T01:07:46;29.00;;;12.52;;
67181;SDS011;54114;53.524;49.396;2023-05-18T01:10:15;24.70;;;13.05;;
67181;SDS011;54114;53.524;49.396;2023-05-18T01:15:16;31.98;;;13.50;;
67181;SDS011;54114;53.524;49.396;2023-05-18T01:20:33;25.75;;;13.40;;
67181;SDS011;54114;53.524;49.396;2023-05-18T01:26:27;25.98;;;14.73;;
67181;SDS011;54114;53.524;49.396;2023-05-18T01:29:03;27.87;;;14.23;;
67181;SDS011;54114;53.524;49.396;2023-05-18T01:31:34;33.47;;;15.15;;
67181;SDS011;54114;53.524;49.396;2023-05-18T01:34:01;27.10;;;14.13;;
67181;SDS011;54114;53.524;49.396;2023-05-18T01:36:28;25.85;;;12.37;;
67181;SDS011;54114;53.524;49.396;2023-05-18T01:38:55;26.05;;;14.05;;
67181;SDS011;54114;53.524;49.396;2023-05-18T01:41:29;31.52;;;13.05;;
67181;SDS011;54114;53.524;49.396;2023-05-18T01:44:04;37.53;;;14.50;;
67181;SDS011;54114;53.524;49.396;2023-05-18T01:49:39;34.30;;;15.82;;
67181;SDS011;54114;53.524;49.396;2023-05-18T01:52:27;36.42;;;14.68;;
67181;SDS011;54114;53.524;49.396;2023-05-18T01:55:01;30.25;;;14.93;;
67181;SDS011;54114;53.524;49.396;2023-05-18T01:57:30;32.80;;;16.30;;
67181;SDS011;54114;53.524;49.396;2023-05-18T01:59:58;28.52;;;16.45;;
67181;SDS011;54114;53.524;49.396;2023-05-18T02:02:26;29.98;;;14.73;;
67181;SDS011;54114;53.524;49.396;2023-05-18T02:04:53;33.22;;;15.05;;
67181;SDS011;54114;53.524;49.396;2023-05-18T02:07:19;30.25;;;16.35;;
67181;SDS011;54114;53.524;49.396;2023-05-18T02:09:46;45.22;;;17.45;;
67181;SDS011;54114;53.524;49.396;2023-05-18T02:12:13;38.92;;;17.48;;
67181;SDS011;54114;53.524;49.396;2023-05-18T02:14:40;35.65;;;17.12;;
67181;SDS011;54114;53.524;49.396;2023-05-18T02:17:06;41.53;;;17.75;;
67181;SDS011;54114;53.524;49.396;2023-05-18T02:19:33;51.08;;;17.55;;
67181;SDS011;54114;53.524;49.396;2023-05-18T02:22:03;53.72;;;18.42;;
67181;SDS011;54114;53.524;49.396;2023-05-18T02:24:31;40.12;;;16.87;;
67181;SDS011;54114;53.524;49.396;2023-05-18T02:26:58;36.22;;;17.02;;
67181;SDS011;54114;53.524;49.396;2023-05-18T02:29:25;50.55;;;17.25;;
67181;SDS011;54114;53.524;49.396;2023-05-18T02:31:52;49.95;;;17.80;;
67181;SDS011;54114;53.524;49.396;2023-05-18T02:34:19;38.00;;;17.00;;
67181;SDS011;54114;53.524;49.396;2023-05-18T02:36:47;38.30;;;17.00;;
67181;SDS011;54114;53.524;49.396;2023-05-18T02:39:13;43.65;;;17.15;;
67181;SDS011;54114;53.524;49.396;2023-05-18T02:41:40;43.92;;;17.45;;
67181;SDS011;54114;53.524;49.396;2023-05-18T02:44:07;51.10;;;17.98;;
67181;SDS011;54114;53.524;49.396;2023-05-18T02:46:33;34.03;;;16.33;;
67181;SDS011;54114;53.524;49.396;2023-05-18T02:49:00;39.47;;;15.68;;
67181;SDS011;54114;53.524;49.396;2023-05-18T02:51:26;38.58;;;17.33;;
67181;SDS011;54114;53.524;49.396;2023-05-18T02:53:54;38.17;;;16.40;;
67181;SDS011;54114;53.524;49.396;2023-05-18T02:56:21;40.17;;;15.90;;
67181;SDS011;54114;53.524;49.396;2023-05-18T02:58:49;38.40;;;15.73;;
67181;SDS011;54114;53.524;49.396;2023-05-18T03:01:21;45.35;;;16.85;;
67181;SDS011;54114;53.524;49.396;2023-05-18T03:03:52;33.33;;;16.02;;
67181;SDS011;54114;53.524;49.396;2023-05-18T03:06:21;51.35;;;16.42;;
67181;SDS011;54114;53.524;49.396;2023-05-18T03:08:51;33.78;;;14.82;;
67181;SDS011;54114;53.524;49.396;2023-05-18T03:11:21;30.33;;;14.63;;
67181;SDS011;54114;53.524;49.396;2023-05-18T03:13:49;34.08;;;14.57;;
67181;SDS011;54114;53.524;49.396;2023-05-18T03:16:15;32.25;;;14.52;;
67181;SDS011;54114;53.524;49.396;2023-05-18T03:18:42;34.60;;;14.27;;
67181;SDS011;54114;53.524;49.396;2023-05-18T03:21:10;38.63;;;15.10;;
67181;SDS011;54114;53.524;49.396;2023-05-18T03:23:37;37.53;;;14.23;;
67181;SDS011;54114;53.524;49.396;2023-05-18T03:26:05;26.35;;;14.00;;
67181;SDS011;54114;53.524;49.396;2023-05-18T03:28:36;29.23;;;14.70;;
67181;SDS011;54114;53.524;49.396;2023-05-18T03:31:03;34.15;;;14.18;;
67181;SDS011;54114;53.524;49.396;2023-05-18T03:33:30;27.95;;;14.25;;
67181;SDS011;54114;53.524;49.396;2023-05-18T03:36:00;27.55;;;12.93;;
67181;SDS011;54114;53.524;49.396;2023-05-18T03:38:28;28.30;;;13.10;;
67181;SDS011;54114;53.524;49.396;2023-05-18T03:40:55;29.77;;;13.25;;
67181;SDS011;54114;53.524;49.396;2023-05-18T03:43:22;31.73;;;14.30;;
67181;SDS011;54114;53.524;49.396;2023-05-18T03:45:50;34.80;;;14.35;;
67181;SDS011;54114;53.524;49.396;2023-05-18T03:48:17;33.92;;;13.68;;
67181;SDS011;54114;53.524;49.396;2023-05-18T03:50:45;27.58;;;11.45;;
67181;SDS011;54114;53.524;49.396;2023-05-18T03:53:12;24.15;;;12.05;;
67181;SDS011;54114;53.524;49.396;2023-05-18T03:55:43;24.45;;;12.37;;
67181;SDS011;54114;53.524;49.396;2023-05-18T03:58:10;35.15;;;13.10;;
67181;SDS011;54114;53.524;49.396;2023-05-18T04:00:37;24.33;;;12.73;;
67181;SDS011;54114;53.524;49.396;2023-05-18T04:03:04;25.58;;;12.27;;
67181;SDS011;54114;53.524;49.396;2023-05-18T04:05:30;31.95;;;12.35;;
67181;SDS011;54114;53.524;49.396;2023-05-18T04:07:57;33.70;;;12.68;;
67181;SDS011;54114;53.524;49.396;2023-05-18T04:10:24;31.65;;;12.85;;
67181;SDS011;54114;53.524;49.396;2023-05-18T04:12:51;21.25;;;12.10;;
67181;SDS011;54114;53.524;49.396;2023-05-18T04:15:17;21.60;;;11.48;;
67181;SDS011;54114;53.524;49.396;2023-05-18T04:17:44;26.17;;;10.63;;
67181;SDS011;54114;53.524;49.396;2023-05-18T04:20:11;24.08;;;10.20;;
67181;SDS011;54114;53.524;49.396;2023-05-18T04:22:39;32.13;;;9.90;;
67181;SDS011;54114;53.524;49.396;2023-05-18T04:25:08;19.70;;;9.48;;
67181;SDS011;54114;53.524;49.396;2023-05-18T04:27:38;19.20;;;8.90;;
67181;SDS011;54114;53.524;49.396;2023-05-18T04:30:12;22.35;;;9.63;;
67181;SDS011;54114;53.524;49.396;2023-05-18T04:32:39;17.67;;;9.07;;
67181;SDS011;54114;53.524;49.396;2023-05-18T04:35:09;20.33;;;8.80;;
67181;SDS011;54114;53.524;49.396;2023-05-18T04:37:36;16.12;;;9.20;;
67181;SDS011;54114;53.524;49.396;2023-05-18T04:40:07;21.42;;;10.20;;
67181;SDS011;54114;53.524;49.396;2023-05-18T04:42:41;21.98;;;9.68;;
67181;SDS011;54114;53.524;49.396;2023-05-18T04:45:12;20.60;;;8.80;;
67181;SDS011;54114;53.524;49.396;2023-05-18T04:47:44;20.45;;;9.23;;
67181;SDS011;54114;53.524;49.396;2023-05-18T04:50:16;20.83;;;8.38;;
67181;SDS011;54114;53.524;49.396;2023-05-18T04:52:43;18.75;;;8.93;;
67181;SDS011;54114;53.524;49.396;2023-05-18T04:55:15;19.42;;;8.25;;
67181;SDS011;54114;53.524;49.396;2023-05-18T04:57:55;19.08;;;8.23;;
67181;SDS011;54114;53.524;49.396;2023-05-18T05:00:22;11.65;;;7.43;;
67181;SDS011;54114;53.524;49.396;2023-05-18T05:02:50;15.32;;;8.77;;
67181;SDS011;54114;53.524;49.396;2023-05-18T05:05:17;18.92;;;8.25;;
67181;SDS011;54114;53.524;49.396;2023-05-18T05:07:45;28.50;;;8.80;;
67181;SDS011;54114;53.524;49.396;2023-05-18T05:10:15;19.17;;;7.80;;
67181;SDS011;54114;53.524;49.396;2023-05-18T05:12:42;28.10;;;8.82;;
67181;SDS011;54114;53.524;49.396;2023-05-18T05:15:09;16.00;;;7.40;;
67181;SDS011;54114;53.524;49.396;2023-05-18T05:17:36;16.77;;;6.62;;
67181;SDS011;54114;53.524;49.396;2023-05-18T05:20:03;24.00;;;7.20;;
67181;SDS011;54114;53.524;49.396;2023-05-18T05:22:30;18.73;;;7.85;;
67181;SDS011;54114;53.524;49.396;2023-05-18T05:24:57;14.98;;;4.95;;
67181;SDS011;54114;53.524;49.396;2023-05-18T05:27:24;15.93;;;4.78;;
67181;SDS011;54114;53.524;49.396;2023-05-18T05:29:50;12.73;;;4.40;;
67181;SDS011;54114;53.524;49.396;2023-05-18T05:32:17;8.90;;;3.75;;
67181;SDS011;54114;53.524;49.396;2023-05-18T05:34:44;15.98;;;4.47;;
67181;SDS011;54114;53.524;49.396;2023-05-18T05:37:12;13.62;;;4.32;;
67181;SDS011;54114;53.524;49.396;2023-05-18T05:39:39;11.07;;;4.53;;
67181;SDS011;54114;53.524;49.396;2023-05-18T05:42:06;10.80;;;5.12;;
67181;SDS011;54114;53.524;49.396;2023-05-18T05:44:35;17.12;;;5.37;;
67181;SDS011;54114;53.524;49.396;2023-05-18T05:47:03;16.27;;;5.60;;
67181;SDS011;54114;53.524;49.396;2023-05-18T05:49:30;17.10;;;3.85;;
67181;SDS011;54114;53.524;49.396;2023-05-18T05:51:57;14.35;;;4.47;;
67181;SDS011;54114;53.524;49.396;2023-05-18T05:54:23;12.02;;;4.00;;
67181;SDS011;54114;53.524;49.396;2023-05-18T05:56:50;9.63;;;4.22;;
67181;SDS011;54114;53.524;49.396;2023-05-18T05:59:17;12.13;;;4.80;;
67181;SDS011;54114;53.524;49.396;2023-05-18T06:01:43;9.10;;;4.10;;
67181;SDS011;54114;53.524;49.396;2023-05-18T06:04:10;25.02;;;5.00;;
67181;SDS011;54114;53.524;49.396;2023-05-18T06:06:37;16.87;;;4.00;;
67181;SDS011;54114;53.524;49.396;2023-05-18T06:09:04;8.18;;;3.67;;
67181;SDS011;54114;53.524;49.396;2023-05-18T06:11:31;23.17;;;4.05;;
67181;SDS011;54114;53.524;49.396;2023-05-18T06:13:58;12.98;;;4.12;;
67181;SDS011;54114;53.524;49.396;2023-05-18T06:16:24;18.52;;;4.00;;
67181;SDS011;54114;53.524;49.396;2023-05-18T06:18:51;11.43;;;4.00;;
67181;SDS011;54114;53.524;49.396;2023-05-18T06:21:18;14.85;;;4.47;;
67181;SDS011;54114;53.524;49.396;2023-05-18T06:23:44;13.45;;;4.45;;
67181;SDS011;54114;53.524;49.396;2023-05-18T06:26:11;9.50;;;4.00;;
67181;SDS011;54114;53.524;49.396;2023-05-18T06:28:38;11.48;;;3.78;;
67181;SDS011;54114;53.524;49.396;2023-05-18T06:31:04;14.02;;;4.22;;
67181;SDS011;54114;53.524;49.396;2023-05-18T06:33:31;11.15;;;4.18;;
67181;SDS011;54114;53.524;49.396;2023-05-18T06:35:58;22.27;;;4.75;;
67181;SDS011;54114;53.524;49.396;2023-05-18T06:38:25;12.23;;;3.95;;
67181;SDS011;54114;53.524;49.396;2023-05-18T06:40:52;13.62;;;3.47;;
67181;SDS011;54114;53.524;49.396;2023-05-18T06:43:18;11.70;;;3.92;;
67181;SDS011;54114;53.524;49.396;2023-05-18T06:45:45;12.73;;;3.42;;
67181;SDS011;54114;53.524;49.396;2023-05-18T06:48:12;11.82;;;3.25;;
67181;SDS011;54114;53.524;49.396;2023-05-18T06:50:38;15.65;;;3.58;;
67181;SDS011;54114;53.524;49.396;2023-05-18T06:53:05;11.75;;;3.12;;
67181;SDS011;54114;53.524;49.396;2023-05-18T06:55:32;8.90;;;3.40;;
67181;SDS011;54114;53.524;49.396;2023-05-18T06:57:58;7.18;;;2.90;;
67181;SDS011;54114;53.524;49.396;2023-05-18T07:00:26;13.25;;;3.03;;
67181;SDS011;54114;53.524;49.396;2023-05-18T07:02:53;10.43;;;2.97;;
67181;SDS011;54114;53.524;49.396;2023-05-18T07:05:20;13.55;;;3.53;;
67181;SDS011;54114;53.524;49.396;2023-05-18T07:07:47;16.35;;;5.10;;
67181;SDS011;54114;53.524;49.396;2023-05-18T07:10:14;8.90;;;3.70;;
67181;SDS011;54114;53.524;49.396;2023-05-18T07:12:41;17.50;;;3.87;;
67181;SDS011;54114;53.524;49.396;2023-05-18T07:15:08;13.98;;;3.78;;
67181;SDS011;54114;53.524;49.396;2023-05-18T07:17:36;16.40;;;3.58;;
67181;SDS011;54114;53.524;49.396;2023-05-18T07:20:04;14.90;;;3.50;;
67181;SDS011;54114;53.524;49.396;2023-05-18T07:22:32;9.13;;;3.30;;
67181;SDS011;54114;53.524;49.396;2023-05-18T07:24:59;10.10;;;2.95;;
67181;SDS011;54114;53.524;49.396;2023-05-18T07:27:26;12.27;;;2.87;;
67181;SDS011;54114;53.524;49.396;2023-05-18T07:29:53;20.92;;;2.90;;
67181;SDS011;54114;53.524;49.396;2023-05-18T07:32:20;14.18;;;3.00;;
67181;SDS011;54114;53.524;49.396;2023-05-18T07:34:47;14.32;;;2.80;;
67181;SDS011;54114;53.524;49.396;2023-05-18T07:37:14;10.77;;;3.53;;
67181;SDS011;54114;53.524;49.396;2023-05-18T07:39:40;7.90;;;3.55;;
67181;SDS011;54114;53.524;49.396;2023-05-18T07:42:07;12.63;;;3.72;;
67181;SDS011;54114;53.524;49.396;2023-05-18T07:44:35;9.18;;;3.00;;
67181;SDS011;54114;53.524;49.396;2023-05-18T07:47:02;16.60;;;3.22;;
67181;SDS011;54114;53.524;49.396;2023-05-18T07:49:29;15.00;;;3.12;;
67181;SDS011;54114;53.524;49.396;2023-05-18T07:51:56;12.65;;;2.97;;
67181;SDS011;54114;53.524;49.396;2023-05-18T07:54:23;11.55;;;2.70;;
67181;SDS011;54114;53.524;49.396;2023-05-18T07:56:50;12.90;;;2.58;;
67181;SDS011;54114;53.524;49.396;2023-05-18T07:59:17;18.55;;;3.22;;
67181;SDS011;54114;53.524;49.396;2023-05-18T08:01:44;5.68;;;2.47;;
67181;SDS011;54114;53.524;49.396;2023-05-18T08:04:13;15.07;;;2.85;;
67181;SDS011;54114;53.524;49.396;2023-05-18T08:06:40;4.93;;;2.47;;
67181;SDS011;54114;53.524;49.396;2023-05-18T08:09:06;10.73;;;3.00;;
67181;SDS011;54114;53.524;49.396;2023-05-18T08:11:34;14.43;;;2.78;;
67181;SDS011;54114;53.524;49.396;2023-05-18T08:14:01;7.18;;;2.25;;
67181;SDS011;54114;53.524;49.396;2023-05-18T08:16:28;9.85;;;2.40;;
67181;SDS011;54114;53.524;49.396;2023-05-18T08:18:54;6.30;;;1.65;;
67181;SDS011;54114;53.524;49.396;2023-05-18T08:21:21;10.57;;;1.98;;
67181;SDS011;54114;53.524;49.396;2023-05-18T08:23:48;10.82;;;1.85;;
67181;SDS011;54114;53.524;49.396;2023-05-18T08:26:14;9.95;;;2.08;;
67181;SDS011;54114;53.524;49.396;2023-05-18T08:28:41;11.75;;;1.83;;
67181;SDS011;54114;53.524;49.396;2023-05-18T08:31:09;3.17;;;2.00;;
67181;SDS011;54114;53.524;49.396;2023-05-18T08:33:36;4.43;;;2.20;;
67181;SDS011;54114;53.524;49.396;2023-05-18T08:36:03;3.85;;;1.95;;
67181;SDS011;54114;53.524;49.396;2023-05-18T08:38:31;3.85;;;1.75;;
67181;SDS011;54114;53.524;49.396;2023-05-18T08:41:00;8.02;;;2.00;;
67181;SDS011;54114;53.524;49.396;2023-05-18T08:43:37;8.75;;;2.30;;
67181;SDS011;54114;53.524;49.396;2023-05-18T08:46:12;6.32;;;1.80;;
67181;SDS011;54114;53.524;49.396;2023-05-18T08:48:58;8.82;;;2.40;;
67181;SDS011;54114;53.524;49.396;2023-05-18T08:51:27;6.12;;;2.15;;
67181;SDS011;54114;53.524;49.396;2023-05-18T08:54:01;7.72;;;2.58;;
67181;SDS011;54114;53.524;49.396;2023-05-18T08:56:31;15.32;;;2.70;;
67181;SDS011;54114;53.524;49.396;2023-05-18T08:58:58;8.70;;;2.03;;
67181;SDS011;54114;53.524;49.396;2023-05-18T09:01:35;14.98;;;2.20;;
67181;SDS011;54114;53.524;49.396;2023-05-18T09:04:02;4.37;;;2.05;;
67181;SDS011;54114;53.524;49.396;2023-05-18T09:06:31;7.80;;;2.20;;
67181;SDS011;54114;53.524;49.396;2023-05-18T09:09:00;12.20;;;1.98;;
67181;SDS011;54114;53.524;49.396;2023-05-18T09:11:33;9.02;;;2.10;;
67181;SDS011;54114;53.524;49.396;2023-05-18T09:14:00;3.58;;;2.10;;
67181;SDS011;54114;53.524;49.396;2023-05-18T09:16:27;10.23;;;2.55;;
67181;SDS011;54114;53.524;49.396;2023-05-18T09:18:54;9.32;;;2.17;;
67181;SDS011;54114;53.524;49.396;2023-05-18T09:21:22;9.32;;;2.22;;
67181;SDS011;54114;53.524;49.396;2023-05-18T09:23:49;6.47;;;2.00;;
67181;SDS011;54114;53.524;49.396;2023-05-18T09:26:17;12.13;;;2.30;;
67181;SDS011;54114;53.524;49.396;2023-05-18T09:28:49;6.22;;;2.30;;
67181;SDS011;54114;53.524;49.396;2023-05-18T09:31:18;7.55;;;1.95;;
67181;SDS011;54114;53.524;49.396;2023-05-18T09:33:48;15.25;;;2.22;;
67181;SDS011;54114;53.524;49.396;2023-05-18T09:36:15;4.90;;;2.10;;
67181;SDS011;54114;53.524;49.396;2023-05-18T09:38:48;7.45;;;2.08;;
67181;SDS011;54114;53.524;49.396;2023-05-18T09:41:18;8.40;;;2.60;;
67181;SDS011;54114;53.524;49.396;2023-05-18T09:43:49;4.22;;;2.08;;
67181;SDS011;54114;53.524;49.396;2023-05-18T09:46:17;8.93;;;2.33;;
67181;SDS011;54114;53.524;49.396;2023-05-18T09:48:49;4.78;;;2.15;;
67181;SDS011;54114;53.524;49.396;2023-05-18T09:51:18;7.55;;;2.20;;
67181;SDS011;54114;53.524;49.396;2023-05-18T09:53:52;11.90;;;1.98;;
67181;SDS011;54114;53.524;49.396;2023-05-18T09:56:21;4.15;;;1.85;;
67181;SDS011;54114;53.524;49.396;2023-05-18T09:58:49;8.15;;;2.15;;
67181;SDS011;54114;53.524;49.396;2023-05-18T10:01:16;6.22;;;2.22;;
67181;SDS011;54114;53.524;49.396;2023-05-18T10:03:43;13.70;;;2.30;;
67181;SDS011;54114;53.524;49.396;2023-05-18T10:06:12;6.78;;;2.22;;
67181;SDS011;54114;53.524;49.396;2023-05-18T10:08:39;8.07;;;2.10;;
67181;SDS011;54114;53.524;49.396;2023-05-18T10:11:06;9.98;;;2.20;;
67181;SDS011;54114;53.524;49.396;2023-05-18T10:13:33;8.35;;;2.00;;
67181;SDS011;54114;53.524;49.396;2023-05-18T10:16:01;5.50;;;2.08;;
67181;SDS011;54114;53.524;49.396;2023-05-18T10:18:34;12.27;;;1.95;;
67181;SDS011;54114;53.524;49.396;2023-05-18T10:21:03;11.05;;;1.90;;
67181;SDS011;54114;53.524;49.396;2023-05-18T10:23:36;7.80;;;2.10;;
67181;SDS011;54114;53.524;49.396;2023-05-18T10:26:06;5.12;;;1.67;;
67181;SDS011;54114;53.524;49.396;2023-05-18T10:28:37;10.10;;;2.03;;
67181;SDS011;54114;53.524;49.396;2023-05-18T10:31:08;16.02;;;2.28;;
67181;SDS011;54114;53.524;49.396;2023-05-18T10:33:36;7.78;;;1.98;;
67181;SDS011;54114;53.524;49.396;2023-05-18T10:36:03;14.15;;;2.20;;
67181;SDS011;54114;53.524;49.396;2023-05-18T10:38:31;5.50;;;2.10;;
67181;SDS011;54114;53.524;49.396;2023-05-18T10:41:04;9.52;;;2.05;;
67181;SDS011;54114;53.524;49.396;2023-05-18T10:43:32;7.03;;;2.08;;
67181;SDS011;54114;53.524;49.396;2023-05-18T10:46:01;14.05;;;2.17;;
67181;SDS011;54114;53.524;49.396;2023-05-18T10:48:29;7.28;;;1.77;;
67181;SDS011;54114;53.524;49.396;2023-05-18T10:50:56;3.40;;;1.77;;
67181;SDS011;54114;53.524;49.396;2023-05-18T10:53:24;9.43;;;2.28;;
67181;SDS011;54114;53.524;49.396;2023-05-18T10:55:54;3.58;;;1.52;;
67181;SDS011;54114;53.524;49.396;2023-05-18T10:58:21;16.52;;;2.10;;
67181;SDS011;54114;53.524;49.396;2023-05-18T11:00:53;3.53;;;1.85;;
67181;SDS011;54114;53.524;49.396;2023-05-18T11:03:24;7.07;;;2.20;;
67181;SDS011;54114;53.524;49.396;2023-05-18T11:06:05;4.95;;;1.83;;
67181;SDS011;54114;53.524;49.396;2023-05-18T11:08:46;10.15;;;2.37;;
67181;SDS011;54114;53.524;49.396;2023-05-18T11:11:14;3.20;;;1.73;;
67181;SDS011;54114;53.524;49.396;2023-05-18T11:13:43;6.00;;;1.75;;
67181;SDS011;54114;53.524;49.396;2023-05-18T11:16:13;13.57;;;2.30;;
67181;SDS011;54114;53.524;49.396;2023-05-18T11:18:48;5.53;;;1.80;;
67181;SDS011;54114;53.524;49.396;2023-05-18T11:24:12;10.88;;;2.50;;
67181;SDS011;54114;53.524;49.396;2023-05-18T11:26:53;9.55;;;1.87;;
67181;SDS011;54114;53.524;49.396;2023-05-18T11:29:34;5.78;;;2.05;;
67181;SDS011;54114;53.524;49.396;2023-05-18T11:32:22;6.37;;;2.12;;
67181;SDS011;54114;53.524;49.396;2023-05-18T11:34:54;10.52;;;1.87;;
67181;SDS011;54114;53.524;49.396;2023-05-18T11:40:03;4.20;;;1.90;;
67181;SDS011;54114;53.524;49.396;2023-05-18T11:42:31;5.82;;;2.05;;
67181;SDS011;54114;53.524;49.396;2023-05-18T11:45:09;2.85;;;1.50;;
67181;SDS011;54114;53.524;49.396;2023-05-18T11:47:37;6.57;;;1.40;;
67181;SDS011;54114;53.524;49.396;2023-05-18T11:50:05;3.62;;;1.50;;
67181;SDS011;54114;53.524;49.396;2023-05-18T11:52:44;8.43;;;1.85;;
67181;SDS011;54114;53.524;49.396;2023-05-18T11:55:13;8.90;;;2.20;;
67181;SDS011;54114;53.524;49.396;2023-05-18T11:57:42;3.10;;;1.60;;
67181;SDS011;54114;53.524;49.396;2023-05-18T12:00:13;6.00;;;1.90;;
67181;SDS011;54114;53.524;49.396;2023-05-18T12:02:42;3.70;;;1.37;;
67181;SDS011;54114;53.524;49.396;2023-05-18T12:05:13;16.58;;;2.05;;
67181;SDS011;54114;53.524;49.396;2023-05-18T12:07:40;1.65;;;1.52;;
67181;SDS011;54114;53.524;49.396;2023-05-18T12:10:09;6.40;;;2.00;;
67181;SDS011;54114;53.524;49.396;2023-05-18T12:12:39;12.35;;;2.62;;
67181;SDS011;54114;53.524;49.396;2023-05-18T12:15:07;3.15;;;1.90;;
67181;SDS011;54114;53.524;49.396;2023-05-18T12:17:39;7.93;;;1.92;;
67181;SDS011;54114;53.524;49.396;2023-05-18T12:20:14;4.35;;;2.17;;
67181;SDS011;54114;53.524;49.396;2023-05-18T12:22:42;11.50;;;2.55;;
67181;SDS011;54114;53.524;49.396;2023-05-18T12:25:18;5.03;;;2.25;;
67181;SDS011;54114;53.524;49.396;2023-05-18T12:27:47;5.75;;;2.00;;
67181;SDS011;54114;53.524;49.396;2023-05-18T12:30:17;3.17;;;1.98;;
67181;SDS011;54114;53.524;49.396;2023-05-18T12:32:59;4.07;;;1.90;;
67181;SDS011;54114;53.524;49.396;2023-05-18T12:35:31;4.22;;;2.30;;
67181;SDS011;54114;53.524;49.396;2023-05-18T12:37:58;7.78;;;2.75;;
67181;SDS011;54114;53.524;49.396;2023-05-18T12:40:25;8.73;;;2.20;;
67181;SDS011;54114;53.524;49.396;2023-05-18T12:43:01;14.93;;;2.05;;
67181;SDS011;54114;53.524;49.396;2023-05-18T12:45:31;4.22;;;2.00;;
67181;SDS011;54114;53.524;49.396;2023-05-18T12:48:05;6.85;;;2.10;;
67181;SDS011;54114;53.524;49.396;2023-05-18T12:50:33;8.73;;;1.90;;
67181;SDS011;54114;53.524;49.396;2023-05-18T12:53:01;5.45;;;1.85;;
67181;SDS011;54114;53.524;49.396;2023-05-18T12:55:28;5.85;;;1.60;;
67181;SDS011;54114;53.524;49.396;2023-05-18T13:00:33;3.92;;;1.60;;
67181;SDS011;54114;53.524;49.396;2023-05-18T13:03:12;4.30;;;1.90;;
67181;SDS011;54114;53.524;49.396;2023-05-18T13:05:41;2.97;;;1.80;;
67181;SDS011;54114;53.524;49.396;2023-05-18T13:08:18;4.47;;;1.70;;
67181;SDS011;54114;53.524;49.396;2023-05-18T13:10:48;7.45;;;2.20;;
67181;SDS011;54114;53.524;49.396;2023-05-18T13:13:14;5.62;;;1.90;;
67181;SDS011;54114;53.524;49.396;2023-05-18T13:15:41;3.25;;;1.85;;
67181;SDS011;54114;53.524;49.396;2023-05-18T13:18:09;11.52;;;2.70;;
67181;SDS011;54114;53.524;49.396;2023-05-18T13:20:48;8.73;;;2.35;;
67181;SDS011;54114;53.524;49.396;2023-05-18T13:23:18;6.65;;;1.83;;
67181;SDS011;54114;53.524;49.396;2023-05-18T13:25:52;7.90;;;2.10;;
67181;SDS011;54114;53.524;49.396;2023-05-18T13:28:21;8.30;;;2.22;;
67181;SDS011;54114;53.524;49.396;2023-05-18T13:30:48;9.38;;;2.20;;
67181;SDS011;54114;53.524;49.396;2023-05-18T13:33:15;5.12;;;2.20;;
67181;SDS011;54114;53.524;49.396;2023-05-18T13:35:43;9.25;;;2.55;;
67181;SDS011;54114;53.524;49.396;2023-05-18T13:38:11;5.07;;;1.85;;
67181;SDS011;54114;53.524;49.396;2023-05-18T13:40:39;9.20;;;2.85;;
67181;SDS011;54114;53.524;49.396;2023-05-18T13:43:06;7.90;;;2.47;;
67181;SDS011;54114;53.524;49.396;2023-05-18T13:45:33;3.20;;;2.00;;
67181;SDS011;54114;53.524;49.396;2023-05-18T13:48:01;7.12;;;2.30;;
67181;SDS011;54114;53.524;49.396;2023-05-18T13:50:31;9.73;;;2.60;;
67181;SDS011;54114;53.524;49.396;2023-05-18T13:52:58;4.90;;;1.65;;
67181;SDS011;54114;53.524;49.396;2023-05-18T13:55:25;13.45;;;2.25;;
67181;SDS011;54114;53.524;49.396;2023-05-18T13:57:52;4.72;;;2.65;;
67181;SDS011;54114;53.524;49.396;2023-05-18T14:00:19;4.03;;;2.80;;
67181;SDS011;54114;53.524;49.396;2023-05-18T14:02:46;5.95;;;2.87;;
67181;SDS011;54114;53.524;49.396;2023-05-18T14:05:13;7.62;;;2.83;;
67181;SDS011;54114;53.524;49.396;2023-05-18T14:07:40;10.77;;;3.00;;
67181;SDS011;54114;53.524;49.396;2023-05-18T14:10:08;8.25;;;3.00;;
67181;SDS011;54114;53.524;49.396;2023-05-18T14:12:37;6.62;;;2.90;;
67181;SDS011;54114;53.524;49.396;2023-05-18T14:15:06;6.95;;;2.40;;
67181;SDS011;54114;53.524;49.396;2023-05-18T14:17:34;5.93;;;2.40;;
67181;SDS011;54114;53.524;49.396;2023-05-18T14:20:01;3.35;;;1.98;;
67181;SDS011;54114;53.524;49.396;2023-05-18T14:22:31;6.40;;;2.08;;
67181;SDS011;54114;53.524;49.396;2023-05-18T14:24:58;7.43;;;2.92;;
67181;SDS011;54114;53.524;49.396;2023-05-18T14:27:25;16.37;;;2.53;;
67181;SDS011;54114;53.524;49.396;2023-05-18T14:29:53;4.45;;;1.92;;
67181;SDS011;54114;53.524;49.396;2023-05-18T14:32:20;5.32;;;2.40;;
67181;SDS011;54114;53.524;49.396;2023-05-18T14:34:47;9.55;;;2.70;;
67181;SDS011;54114;53.524;49.396;2023-05-18T14:37:16;6.15;;;2.40;;
67181;SDS011;54114;53.524;49.396;2023-05-18T14:39:43;3.67;;;2.70;;
67181;SDS011;54114;53.524;49.396;2023-05-18T14:42:10;4.05;;;1.83;;
67181;SDS011;54114;53.524;49.396;2023-05-18T14:44:37;3.62;;;2.12;;
67181;SDS011;54114;53.524;49.396;2023-05-18T14:47:03;7.53;;;2.20;;
67181;SDS011;54114;53.524;49.396;2023-05-18T14:49:30;9.90;;;3.00;;
67181;SDS011;54114;53.524;49.396;2023-05-18T14:51:57;11.12;;;3.10;;